Time;durP1;ratioP1;P1;durP2;ratioP2;P2;SDS_P1;SDS_P2;PMS_P1;PMS_P2;Temp;Humidity;BMP_temperature;BMP_pressure;BME280_temperature;BME280_humidity;BME280_pressure;Samples;Min_cycle;Max_cycle;Signal;HPM_P1;HPM_P2
2023/10/14 00:00:47;;;;;;;23.95;11.68;;;19.20;99.90;;;;;;5097912;28;20039;-71
2023/10/14 00:03:27;;;;;;;21.52;10.95;;;19.20;99.90;;;;;;5097835;28;20016;-69
2023/10/14 00:05:53;;;;;;;23.50;10.30;;;19.30;99.90;;;;;;5098091;28;20488;-70
2023/10/14 00:08:18;;;;;;;20.60;10.52;;;19.30;99.90;;;;;;5097231;28;20025;-69
2023/10/14 00:10:44;;;;;;;18.92;10.20;;;19.20;99.90;;;;;;5097304;28;20031;-68
2023/10/14 00:13:11;;;;;;;18.13;10.95;;;19.20;99.90;;;;;;5097048;28;20385;-68
2023/10/14 00:15:39;;;;;;;22.00;10.73;;;19.20;99.90;;;;;;5097426;28;20028;-69
2023/10/14 00:18:07;;;;;;;19.13;10.85;;;19.20;99.90;;;;;;5097359;28;20023;-70
2023/10/14 00:20:35;;;;;;;17.85;11.02;;;19.20;99.90;;;;;;5097512;28;20469;-70
2023/10/14 00:23:02;;;;;;;20.63;11.10;;;19.20;99.90;;;;;;5097225;28;20573;-70
2023/10/14 00:25:28;;;;;;;20.67;11.02;;;19.10;99.90;;;;;;5097721;28;20024;-70
2023/10/14 00:27:53;;;;;;;24.80;11.73;;;19.10;99.90;;;;;;5097637;28;20074;-69
2023/10/14 00:30:20;;;;;;;19.05;11.80;;;19.20;99.90;;;;;;5097514;28;20119;-71
2023/10/14 00:32:46;;;;;;;22.73;12.43;;;19.20;99.90;;;;;;5097253;28;20497;-70
2023/10/14 00:35:12;;;;;;;23.02;12.05;;;19.10;99.90;;;;;;5096329;28;20077;-71
2023/10/14 00:37:37;;;;;;;22.20;11.85;;;19.00;99.90;;;;;;5096816;28;20024;-73
2023/10/14 00:40:12;;;;;;;20.80;11.55;;;19.00;99.90;;;;;;5097497;28;20032;-70
2023/10/14 00:42:38;;;;;;;22.08;11.43;;;19.10;99.90;;;;;;5096116;28;20016;-70
2023/10/14 00:45:09;;;;;;;26.27;12.60;;;19.10;99.90;;;;;;5097360;28;20039;-70
2023/10/14 00:47:40;;;;;;;19.17;11.48;;;19.10;99.90;;;;;;5096648;28;20478;-70
2023/10/14 00:50:22;;;;;;;21.70;11.95;;;19.20;99.90;;;;;;5097018;28;20026;-70
2023/10/14 00:52:53;;;;;;;24.48;12.13;;;19.10;99.90;;;;;;5096814;28;20028;-70
2023/10/14 00:55:27;;;;;;;21.15;12.18;;;;;;;;;;5096634;28;20031;-70
2023/10/14 00:57:58;;;;;;;21.15;11.65;;;19.00;99.90;;;;;;5096155;28;20028;-69
2023/10/14 01:00:45;;;;;;;20.70;12.95;;;18.90;99.90;;;;;;5096610;28;20066;-70
2023/10/14 01:03:10;;;;;;;21.58;12.63;;;18.90;99.90;;;;;;5095922;28;20070;-70
2023/10/14 01:05:36;;;;;;;20.58;13.05;;;18.60;99.90;;;;;;5096443;28;20044;-71
2023/10/14 01:08:07;;;;;;;25.45;12.38;;;18.30;99.90;;;;;;5096988;28;20071;-69
2023/10/14 01:10:35;;;;;;;21.92;11.23;;;18.20;99.90;;;;;;5096631;28;20024;-69
2023/10/14 01:13:06;;;;;;;19.50;12.07;;;18.20;99.90;;;;;;5096490;28;20532;-71
2023/10/14 01:15:33;;;;;;;20.63;10.27;;;18.10;99.90;;;;;;5096235;28;20073;-72
2023/10/14 01:18:00;;;;;;;16.65;10.40;;;18.10;99.90;;;;;;5096358;28;20028;-71
2023/10/14 01:20:35;;;;;;;21.45;10.98;;;18.10;99.90;;;;;;5096009;28;20042;-71
2023/10/14 01:23:07;;;;;;;25.45;10.88;;;18.10;99.90;;;;;;5096641;28;20028;-71
2023/10/14 01:25:33;;;;;;;25.42;10.48;;;18.00;99.90;;;;;;5096017;28;20027;-71
2023/10/14 01:27:59;;;;;;;3.72;2.50;;;17.90;99.90;;;;;;5095855;28;20024;-71
2023/10/14 01:30:26;;;;;;;1.75;1.63;;;17.30;99.90;;;;;;5095938;28;20024;-71
2023/10/14 01:32:52;;;;;;;6.90;2.17;;;16.60;99.90;;;;;;5095388;28;20048;-71
2023/10/14 01:35:40;;;;;;;5.95;1.55;;;16.10;99.90;;;;;;5095757;28;20351;-73
2023/10/14 01:38:05;;;;;;;2.08;1.10;;;15.60;99.90;;;;;;5095258;28;20031;-72
2023/10/14 01:40:40;;;;;;;2.75;1.00;;;15.10;99.90;;;;;;5095400;28;20032;-72
2023/10/14 01:43:06;;;;;;;1.70;0.77;;;14.90;99.90;;;;;;5095857;28;20484;-72
2023/10/14 01:45:40;;;;;;;4.00;1.02;;;14.70;99.90;;;;;;5095869;28;20052;-72
2023/10/14 01:50:47;;;;;;;5.28;1.08;;;14.40;99.90;;;;;;5111965;27;20384;-70
2023/10/14 01:53:17;;;;;;;1.20;0.73;;;14.30;99.90;;;;;;5111633;28;20503;-70
2023/10/14 01:55:45;;;;;;;2.90;0.90;;;14.20;99.90;;;;;;5111585;28;20062;-70
2023/10/14 01:58:13;;;;;;;1.85;0.88;;;14.10;99.90;;;;;;5111755;28;20051;-70
2023/10/14 02:00:39;;;;;;;3.40;0.85;;;14.00;99.90;;;;;;5111788;28;20027;-70
2023/10/14 02:03:06;;;;;;;3.47;1.00;;;14.00;99.90;;;;;;5111720;28;20028;-70
2023/10/14 02:05:39;;;;;;;2.85;1.08;;;13.90;99.90;;;;;;5111675;28;20030;-70
2023/10/14 02:08:16;;;;;;;4.53;1.05;;;13.90;99.90;;;;;;5111823;28;20024;-70
2023/10/14 02:10:50;;;;;;;4.50;1.02;;;13.80;99.90;;;;;;5111554;28;20034;-69
2023/10/14 02:13:18;;;;;;;2.83;0.70;;;13.70;99.90;;;;;;5111316;28;20069;-70
2023/10/14 02:15:47;;;;;;;1.33;0.70;;;13.60;99.90;;;;;;5111097;28;20066;-70
2023/10/14 02:18:21;;;;;;;2.90;0.60;;;13.60;99.90;;;;;;5111629;28;20027;-70
2023/10/14 02:21:19;;;;;;;1.50;0.75;;;13.50;99.90;;;;;;5111229;28;20027;-70
2023/10/14 02:23:51;;;;;;;2.95;0.90;;;13.50;99.90;;;;;;5110448;28;20066;-70
2023/10/14 02:26:22;;;;;;;5.22;0.90;;;13.40;99.90;;;;;;5111226;28;20023;-70
2023/10/14 02:28:49;;;;;;;3.92;1.10;;;13.50;99.90;;;;;;5111163;28;20140;-70
2023/10/14 02:31:17;;;;;;;2.05;0.90;;;13.40;99.90;;;;;;5111407;28;20072;-70
2023/10/14 02:33:45;;;;;;;3.53;0.82;;;13.50;99.90;;;;;;5111338;28;20016;-70
2023/10/14 02:36:15;;;;;;;1.50;0.82;;;13.50;99.90;;;;;;5110791;28;20107;-69
2023/10/14 02:38:46;;;;;;;2.75;0.70;;;13.50;99.90;;;;;;5111063;28;20050;-69
2023/10/14 02:41:15;;;;;;;2.42;0.82;;;13.50;99.90;;;;;;5110593;28;20456;-70
2023/10/14 02:43:42;;;;;;;2.60;0.90;;;13.50;99.90;;;;;;5111009;28;20028;-70
2023/10/14 02:46:10;;;;;;;1.85;0.88;;;13.50;99.90;;;;;;5110851;28;20366;-69
2023/10/14 02:48:52;;;;;;;1.73;0.70;;;13.50;99.90;;;;;;5110521;28;20367;-69
2023/10/14 02:51:29;;;;;;;1.85;1.00;;;13.40;99.90;;;;;;5110521;28;20039;-70
2023/10/14 02:53:56;;;;;;;5.80;1.10;;;13.40;99.90;;;;;;5110512;28;20027;-70
2023/10/14 02:56:32;;;;;;;2.67;0.70;;;13.50;99.90;;;;;;5110423;28;20051;-70
2023/10/14 02:58:58;;;;;;;2.03;0.88;;;13.50;99.90;;;;;;5110826;28;20032;-70
2023/10/14 03:01:31;;;;;;;1.42;0.90;;;13.60;99.90;;;;;;5100758;28;20536;-70
2023/10/14 03:03:57;;;;;;;1.42;1.15;;;13.50;99.90;;;;;;5096677;28;20375;-70
2023/10/14 03:06:23;;;;;;;4.95;1.50;;;13.50;99.90;;;;;;5095904;28;20028;-69
2023/10/14 03:08:57;;;;;;;1.35;1.20;;;13.50;99.90;;;;;;5096256;28;20049;-70
2023/10/14 03:11:25;;;;;;;3.72;1.50;;;13.50;99.90;;;;;;5096299;28;20103;-69
2023/10/14 03:13:52;;;;;;;2.38;1.38;;;13.50;99.90;;;;;;5096578;28;20505;-69
2023/10/14 03:16:17;;;;;;;3.35;1.40;;;13.50;99.90;;;;;;5096925;28;20024;-69
2023/10/14 03:18:44;;;;;;;4.57;1.20;;;13.50;99.90;;;;;;5096657;28;20115;-69
2023/10/14 03:21:09;;;;;;;4.82;1.40;;;13.50;99.90;;;;;;5096692;28;20019;-69
2023/10/14 03:23:35;;;;;;;2.38;1.30;;;13.50;99.90;;;;;;5096813;28;20031;-69
2023/10/14 03:26:12;;;;;;;6.07;1.35;;;13.50;99.90;;;;;;5096158;28;20081;-69
2023/10/14 03:28:39;;;;;;;3.45;1.80;;;13.40;99.90;;;;;;5096405;28;20440;-69
2023/10/14 03:31:09;;;;;;;3.92;1.50;;;13.40;99.90;;;;;;5096623;28;20022;-69
2023/10/14 03:33:54;;;;;;;2.88;2.00;;;13.40;99.90;;;;;;5096667;28;20024;-69
2023/10/14 03:36:28;;;;;;;6.50;2.08;;;13.30;99.90;;;;;;5096067;28;20474;-69
2023/10/14 03:38:55;;;;;;;;;;;13.30;99.90;;;;;;5097060;28;20030;-69
2023/10/14 03:41:21;;;;;;;7.00;1.90;;;13.20;99.90;;;;;;5096584;28;19904;-69
2023/10/14 03:46:35;;;;;;;9.45;2.60;;;13.10;99.90;;;;;;5111977;27;20294;-69
2023/10/14 03:49:38;;;;;;;6.05;1.88;;;13.00;99.90;;;;;;5112064;28;20032;-69
2023/10/14 03:51:54;;;;;;;7.25;1.85;;;13.00;99.90;;;;;;5110937;28;20081;-68
2023/10/14 03:54:23;;;;;;;4.93;2.20;;;13.00;99.90;;;;;;5111439;28;20115;-68
2023/10/14 03:56:50;;;;;;;7.32;1.85;;;13.00;99.90;;;;;;5111695;28;20032;-69
2023/10/14 03:59:21;;;;;;;13.80;2.95;;;13.00;99.90;;;;;;5111440;28;20530;-69
2023/10/14 04:01:47;;;;;;;12.20;2.67;;;12.90;99.90;;;;;;5111396;28;20036;-69
2023/10/14 04:04:17;;;;;;;9.75;2.55;;;12.90;99.90;;;;;;5111495;28;20038;-69
2023/10/14 04:06:51;;;;;;;17.40;2.67;;;12.90;99.90;;;;;;5111424;28;20016;-69
2023/10/14 04:09:23;;;;;;;16.30;2.72;;;12.90;99.90;;;;;;5111287;28;20024;-69
2023/10/14 04:11:52;;;;;;;9.93;2.10;;;12.80;99.90;;;;;;5111540;28;20423;-68
2023/10/14 04:14:22;;;;;;;5.93;1.85;;;12.80;99.90;;;;;;5111653;28;20020;-69
2023/10/14 04:17:00;;;;;;;16.73;2.53;;;12.80;99.90;;;;;;5111395;28;20115;-69
2023/10/14 04:19:44;;;;;;;15.60;2.78;;;12.80;99.90;;;;;;5111539;28;20565;-69
2023/10/14 04:22:31;;;;;;;14.15;2.60;;;12.60;99.90;;;;;;5110967;28;20022;-69
2023/10/14 04:35:36;;;;;;;9.38;2.80;;;12.50;99.90;;;;;;5091665;28;20159;-69
2023/10/14 04:38:12;;;;;;;11.70;3.10;;;12.40;99.90;;;;;;5091391;28;20024;-70
2023/10/14 04:40:38;;;;;;;16.45;2.97;;;12.50;99.90;;;;;;5091804;28;20062;-70
2023/10/14 04:43:18;;;;;;;11.90;2.80;;;12.40;99.90;;;;;;5091513;28;20458;-69
2023/10/14 04:45:51;;;;;;;17.80;3.25;;;12.50;99.90;;;;;;5091526;28;20025;-70
2023/10/14 04:48:17;;;;;;;14.87;3.27;;;12.50;99.90;;;;;;5091172;28;20035;-69
2023/10/14 04:50:44;;;;;;;13.73;2.65;;;12.50;99.90;;;;;;5091367;28;20020;-69
2023/10/14 04:53:13;;;;;;;13.02;2.67;;;12.50;99.90;;;;;;5091120;28;20081;-70
2023/10/14 04:55:43;;;;;;;17.35;2.70;;;12.50;99.90;;;;;;5091045;28;20021;-69
2023/10/14 05:00:43;;;;;;;10.55;2.70;;;12.50;99.90;;;;;;5090657;28;20020;-69
2023/10/14 05:03:12;;;;;;;16.08;2.92;;;12.50;99.90;;;;;;5090819;28;20024;-69
2023/10/14 05:05:38;;;;;;;14.60;3.00;;;12.60;99.90;;;;;;5090863;28;20112;-69
2023/10/14 05:08:06;;;;;;;14.50;3.00;;;12.50;99.90;;;;;;5091093;28;20032;-69
2023/10/14 05:10:31;;;;;;;15.13;2.90;;;12.50;99.90;;;;;;5091082;28;20032;-69
2023/10/14 05:12:57;;;;;;;12.40;2.40;;;12.40;99.90;;;;;;5091114;28;20028;-69
2023/10/14 05:15:27;;;;;;;17.15;2.85;;;12.30;99.90;;;;;;5090551;28;20386;-69
2023/10/14 05:17:56;;;;;;;17.50;3.28;;;12.30;99.90;;;;;;5090851;28;20055;-69
2023/10/14 05:20:48;;;;;;;9.45;2.55;;;12.20;99.90;;;;;;5090760;28;20078;-70
2023/10/14 05:23:07;;;;;;;15.73;3.05;;;12.20;99.90;;;;;;5089851;28;20024;-69
2023/10/14 05:25:39;;;;;;;9.13;2.83;;;12.10;99.90;;;;;;5090965;28;20073;-69
2023/10/14 05:28:06;;;;;;;14.77;2.72;;;12.00;99.90;;;;;;5090291;28;20386;-69
2023/10/14 05:30:33;;;;;;;15.80;2.92;;;11.90;99.90;;;;;;5090557;28;20459;-69
2023/10/14 05:33:07;;;;;;;11.40;2.63;;;11.90;99.90;;;;;;5089987;28;20031;-69
2023/10/14 05:35:38;;;;;;;15.65;3.00;;;11.80;99.90;;;;;;5090764;28;20513;-69
2023/10/14 05:38:09;;;;;;;13.57;3.25;;;11.80;99.90;;;;;;5090219;28;20028;-69
2023/10/14 05:40:36;;;;;;;10.55;2.55;;;11.70;99.90;;;;;;5090372;28;20381;-69
2023/10/14 05:43:02;;;;;;;15.77;3.50;;;11.70;99.90;;;;;;5089901;28;20048;-69
2023/10/14 05:45:31;;;;;;;14.18;2.85;;;11.60;99.90;;;;;;5084869;28;20067;-69
2023/10/14 05:47:57;;;;;;;14.52;3.08;;;11.50;99.90;;;;;;5076884;28;20021;-69
2023/10/14 05:50:24;;;;;;;10.63;3.05;;;11.60;99.90;;;;;;5076936;28;20025;-69
2023/10/14 05:52:49;;;;;;;11.90;2.78;;;11.60;99.90;;;;;;5076665;28;20028;-69
2023/10/14 05:55:19;;;;;;;11.52;2.72;;;11.60;99.90;;;;;;5076030;28;20044;-69
2023/10/14 05:57:47;;;;;;;15.25;2.90;;;11.60;99.90;;;;;;5076581;28;20037;-69
2023/10/14 06:00:21;;;;;;;11.02;2.60;;;11.60;99.90;;;;;;5076371;28;20375;-69
2023/10/14 06:02:48;;;;;;;10.43;2.45;;;11.50;99.90;;;;;;5076674;28;20052;-69
2023/10/14 06:05:16;;;;;;;13.10;2.92;;;11.50;99.90;;;;;;5076050;28;20021;-69
2023/10/14 06:07:46;;;;;;;18.55;3.95;;;11.40;99.90;;;;;;5075653;28;20026;-69
2023/10/14 06:10:22;;;;;;;12.80;2.72;;;11.50;99.90;;;;;;5076166;28;20036;-69
2023/10/14 06:12:50;;;;;;;16.30;3.13;;;11.50;99.90;;;;;;5076044;28;20062;-69
2023/10/14 06:15:17;;;;;;;20.48;2.90;;;11.50;99.90;;;;;;5075718;28;20033;-69
2023/10/14 06:17:44;;;;;;;9.15;2.80;;;11.50;99.90;;;;;;5075914;28;20029;-69
2023/10/14 06:20:14;;;;;;;17.27;3.08;;;11.50;99.90;;;;;;5076033;28;20154;-69
2023/10/14 06:22:41;;;;;;;16.98;3.30;;;11.50;99.90;;;;;;5076315;28;20024;-69
2023/10/14 06:25:07;;;;;;;13.48;2.72;;;11.50;99.90;;;;;;5076222;28;20027;-69
2023/10/14 06:27:33;;;;;;;15.48;2.72;;;11.50;99.90;;;;;;5076270;28;20115;-69
2023/10/14 06:29:58;;;;;;;13.52;2.80;;;11.60;99.90;;;;;;5075733;28;20435;-69
2023/10/14 06:32:24;;;;;;;13.68;3.20;;;11.60;99.90;;;;;;5075460;28;20024;-69
2023/10/14 06:35:05;;;;;;;12.70;3.17;;;11.70;99.90;;;;;;5089517;28;20089;-69
2023/10/14 06:37:31;;;;;;;13.50;3.13;;;11.60;99.90;;;;;;5095981;28;20478;-69
2023/10/14 06:39:56;;;;;;;15.07;3.35;;;11.60;99.90;;;;;;5095733;28;20055;-69
2023/10/14 06:42:22;;;;;;;15.60;3.50;;;11.70;99.90;;;;;;5096163;28;20023;-69
2023/10/14 06:44:48;;;;;;;12.73;3.03;;;12.00;99.90;;;;;;5095831;28;20487;-69
2023/10/14 06:47:13;;;;;;;17.60;2.95;;;12.60;99.90;;;;;;5095875;28;20031;-69
2023/10/14 06:49:41;;;;;;;13.70;2.63;;;13.20;99.90;;;;;;5095520;28;20122;-69
2023/10/14 06:52:08;;;;;;;11.63;3.00;;;13.70;99.90;;;;;;5095432;28;20024;-69
2023/10/14 06:54:36;;;;;;;13.32;2.78;;;13.80;99.90;;;;;;5095669;28;20101;-70
2023/10/14 06:57:07;;;;;;;16.77;2.97;;;14.00;99.90;;;;;;5094862;28;20158;-69
2023/10/14 06:59:33;;;;;;;10.98;2.58;;;14.10;90.60;;;;;;5095591;28;20020;-69
2023/10/14 07:01:59;;;;;;;9.48;2.13;;;14.00;92.50;;;;;;5095405;28;20023;-69
2023/10/14 07:04:25;;;;;;;15.55;2.53;;;14.00;87.50;;;;;;5095743;28;20032;-70
2023/10/14 07:06:51;;;;;;;12.38;2.50;;;14.10;86.50;;;;;;5094861;28;20035;-69
2023/10/14 07:09:17;;;;;;;15.05;2.63;;;14.60;46.90;;;;;;5095596;28;20024;-70
2023/10/14 07:11:45;;;;;;;14.68;3.20;;;14.80;20.70;;;;;;5094988;28;20389;-70
2023/10/14 07:14:11;;;;;;;13.13;3.38;;;14.90;34.60;;;;;;5095489;28;20024;-70
2023/10/14 07:16:36;;;;;;;13.80;2.65;;;15.30;16.20;;;;;;5094773;28;20024;-70
2023/10/14 07:19:02;;;;;;;12.77;2.90;;;15.40;1.00;;;;;;5095035;28;20020;-70
2023/10/14 07:21:29;;;;;;;14.30;2.75;;;15.60;1.00;;;;;;5095117;28;20032;-70
2023/10/14 07:23:55;;;;;;;7.38;2.30;;;15.20;1.00;;;;;;5094547;28;20024;-70
2023/10/14 07:26:22;;;;;;;10.73;2.80;;;15.20;1.00;;;;;;5095112;28;20028;-71
2023/10/14 07:28:51;;;;;;;11.57;2.33;;;15.30;1.00;;;;;;5094945;28;20359;-70
2023/10/14 07:31:17;;;;;;;12.90;2.45;;;15.10;1.00;;;;;;5094815;28;20028;-70
2023/10/14 07:33:43;;;;;;;15.30;3.25;;;14.70;13.20;;;;;;5094623;28;20059;-70
2023/10/14 07:36:11;;;;;;;15.40;2.78;;;15.20;1.00;;;;;;5094460;28;20465;-70
2023/10/14 07:38:37;;;;;;;12.32;2.75;;;14.90;1.00;;;;;;5095146;28;20027;-70
2023/10/14 07:41:05;;;;;;;12.25;2.70;;;14.90;1.00;;;;;;5094668;28;20462;-70
2023/10/14 07:43:33;;;;;;;14.40;2.72;;;14.90;1.00;;;;;;5094609;28;20016;-70
2023/10/14 07:46:00;;;;;;;17.95;3.22;;;14.90;1.00;;;;;;5094277;28;20020;-70
2023/10/14 07:48:26;;;;;;;16.98;3.25;;;14.90;1.00;;;;;;5094313;28;20023;-70
2023/10/14 07:50:56;;;;;;;12.45;3.08;;;15.20;1.00;;;;;;5094620;28;20366;-70
2023/10/14 07:53:23;;;;;;;14.18;2.92;;;15.40;1.00;;;;;;5094350;28;20427;-70
2023/10/14 07:55:51;;;;;;;14.82;2.83;;;15.70;1.00;;;;;;5094430;28;20020;-70
2023/10/14 07:58:19;;;;;;;13.32;2.22;;;16.00;1.00;;;;;;5094723;28;20523;-70
2023/10/14 08:00:50;;;;;;;10.60;2.42;;;15.70;1.00;;;;;;5094493;28;20417;-70
2023/10/14 08:03:20;;;;;;;12.65;2.70;;;15.60;1.00;;;;;;5094399;28;20102;-70
2023/10/14 08:05:49;;;;;;;10.45;2.25;;;15.50;1.00;;;;;;5093975;28;20035;-71
2023/10/14 08:08:15;;;;;;;15.57;2.88;;;16.30;1.00;;;;;;5094355;28;20104;-71
2023/10/14 08:10:43;;;;;;;12.88;2.92;;;16.40;99.90;;;;;;5094101;28;20074;-71
2023/10/14 08:13:12;;;;;;;13.63;2.38;;;16.50;99.90;;;;;;5094471;28;20039;-71
2023/10/14 08:15:38;;;;;;;13.02;2.95;;;16.40;99.90;;;;;;5093627;28;20039;-71
2023/10/14 08:18:05;;;;;;;14.25;2.83;;;16.40;99.90;;;;;;5094191;28;20474;-71
2023/10/14 08:20:31;;;;;;;11.05;2.45;;;16.10;99.90;;;;;;5094160;28;20027;-71
2023/10/14 08:22:57;;;;;;;12.15;2.85;;;16.50;99.90;;;;;;5094410;28;20042;-71
2023/10/14 08:25:25;;;;;;;12.85;2.63;;;16.20;99.90;;;;;;5093841;28;20465;-71
2023/10/14 08:27:53;;;;;;;15.43;2.80;;;16.90;99.90;;;;;;5093892;28;20036;-71
2023/10/14 08:30:19;;;;;;;13.80;2.50;;;16.80;99.90;;;;;;5094001;28;20020;-71
2023/10/14 08:32:46;;;;;;;14.13;3.00;;;16.50;99.90;;;;;;5094175;28;20036;-71
2023/10/14 08:35:16;;;;;;;15.10;3.15;;;16.90;99.90;;;;;;5093191;28;20036;-71
2023/10/14 08:37:47;;;;;;;11.45;2.60;;;16.40;99.90;;;;;;5094248;28;20458;-70
2023/10/14 08:40:16;;;;;;;12.65;2.42;;;16.30;99.90;;;;;;5093228;28;20016;-71
2023/10/14 08:42:49;;;;;;;9.55;2.38;;;16.70;99.90;;;;;;5093788;28;20119;-71
2023/10/14 08:45:16;;;;;;;14.75;2.92;;;16.90;99.90;;;;;;5093796;28;20028;-71
2023/10/14 08:47:45;;;;;;;16.45;3.53;;;17.30;99.90;;;;;;5093670;28;20028;-71
2023/10/14 08:50:15;;;;;;;15.70;2.88;;;17.30;99.90;;;;;;5093547;28;20390;-71
2023/10/14 08:52:45;;;;;;;11.98;3.13;;;16.70;99.90;;;;;;5094199;28;20032;-71
2023/10/14 08:55:13;;;;;;;15.73;3.30;;;16.90;99.90;;;;;;5093901;28;20064;-71
2023/10/14 08:57:39;;;;;;;13.13;2.72;;;16.70;99.90;;;;;;5094081;28;20031;-71
2023/10/14 09:00:05;;;;;;;19.23;3.22;;;16.70;1.00;;;;;;5093642;28;20024;-71
2023/10/14 09:02:31;;;;;;;14.90;2.90;;;17.10;99.90;;;;;;5093070;28;20031;-71
2023/10/14 09:05:03;;;;;;;11.20;2.90;;;17.50;1.00;;;;;;5093630;28;20020;-71
2023/10/14 09:07:32;;;;;;;12.38;3.05;;;17.50;99.90;;;;;;5093755;28;20031;-71
2023/10/14 09:09:57;;;;;;;12.95;3.20;;;17.10;99.90;;;;;;5093265;28;20016;-72
2023/10/14 09:12:23;;;;;;;16.38;2.70;;;17.20;99.90;;;;;;5093721;28;20382;-71
2023/10/14 09:14:50;;;;;;;12.57;3.08;;;17.70;1.00;;;;;;5093779;28;20381;-71
2023/10/14 09:17:16;;;;;;;12.20;2.97;;;17.60;1.00;;;;;;5093271;28;20025;-71
2023/10/14 09:19:44;;;;;;;15.80;3.35;;;17.40;99.90;;;;;;5093611;28;20028;-71
2023/10/14 09:22:28;;;;;;;20.23;3.38;;;18.00;1.00;;;;;;5097323;28;20020;-72
2023/10/14 09:24:58;;;;;;;14.32;2.75;;;17.90;1.00;;;;;;5097608;28;20031;-71
2023/10/14 09:27:26;;;;;;;14.73;3.58;;;17.80;99.90;;;;;;5097225;28;20029;-71
2023/10/14 09:29:56;;;;;;;16.23;3.15;;;17.60;99.90;;;;;;5097611;28;20175;-71
2023/10/14 09:32:22;;;;;;;17.02;2.80;;;17.60;56.40;;;;;;5097535;28;20028;-71
2023/10/14 09:34:51;;;;;;;17.20;3.00;;;17.50;58.90;;;;;;5096006;28;20047;-71
2023/10/14 09:37:17;;;;;;;12.10;2.70;;;17.50;99.90;;;;;;5097227;28;20545;-71
2023/10/14 09:39:48;;;;;;;12.55;2.58;;;17.70;99.90;;;;;;5097443;28;20107;-71
2023/10/14 09:42:15;;;;;;;9.63;2.33;;;17.70;99.90;;;;;;5097186;28;20074;-71
2023/10/14 09:44:43;;;;;;;12.80;2.70;;;17.40;99.90;;;;;;5097061;28;20028;-71
2023/10/14 09:47:13;;;;;;;15.57;2.97;;;17.40;36.20;;;;;;5097229;28;20470;-71
2023/10/14 09:49:39;;;;;;;15.85;3.53;;;17.60;99.90;;;;;;5096437;28;20107;-71
2023/10/14 09:52:06;;;;;;;15.88;3.10;;;17.40;1.00;;;;;;5096141;28;20056;-71
2023/10/14 09:54:34;;;;;;;16.35;3.10;;;17.40;1.00;;;;;;5096886;28;20369;-70
2023/10/14 09:57:00;;;;;;;12.40;2.42;;;17.00;58.00;;;;;;5096604;28;20422;-71
2023/10/14 09:59:28;;;;;;;16.15;3.20;;;16.60;99.90;;;;;;5096766;28;20025;-71
2023/10/14 10:01:54;;;;;;;15.07;3.35;;;17.40;99.90;;;;;;5096574;28;20028;-72
2023/10/14 10:04:25;;;;;;;14.50;2.90;;;17.90;1.00;;;;;;5096983;28;20508;-71
2023/10/14 10:07:20;;;;;;;12.80;2.83;;;17.80;57.80;;;;;;5095725;28;20028;-71
2023/10/14 10:10:13;;;;;;;10.48;2.95;;;17.80;1.00;;;;;;5095974;28;20032;-71
2023/10/14 10:12:41;;;;;;;13.55;3.20;;;17.40;99.90;;;;;;5096443;28;20024;-71
2023/10/14 10:15:08;;;;;;;14.93;2.42;;;17.80;99.90;;;;;;5096178;28;20043;-71
2023/10/14 10:17:36;;;;;;;14.93;3.25;;;17.30;99.90;;;;;;5096227;28;20473;-71
2023/10/14 10:20:12;;;;;;;13.00;3.40;;;17.90;99.90;;;;;;5096704;28;20355;-71
2023/10/14 10:22:41;;;;;;;14.23;3.10;;;17.60;1.00;;;;;;5096077;28;20020;-72
2023/10/14 10:25:09;;;;;;;14.30;3.30;;;18.20;99.90;;;;;;5096149;28;20039;-72
2023/10/14 10:27:36;;;;;;;16.90;2.90;;;17.70;1.00;;;;;;5096279;28;20156;-72
2023/10/14 10:30:07;;;;;;;12.98;2.67;;;17.30;99.90;;;;;;5096186;28;20032;-72
2023/10/14 10:32:34;;;;;;;9.90;3.15;;;17.70;1.00;;;;;;5096328;28;20024;-72
2023/10/14 10:40:27;;;;;;;15.93;3.05;;;18.30;1.00;;;;;;5091604;28;20382;-73
2023/10/14 10:43:03;;;;;;;14.00;2.80;;;17.50;99.90;;;;;;5091836;28;20036;-73
2023/10/14 10:45:32;;;;;;;14.52;2.90;;;18.00;7.00;;;;;;5091148;28;20028;-74
2023/10/14 10:48:00;;;;;;;15.65;3.13;;;17.30;99.90;;;;;;5090955;28;20028;-73
2023/10/14 10:50:36;;;;;;;19.00;2.75;;;17.40;99.90;;;;;;5091433;28;20111;-74
2023/10/14 10:53:16;;;;;;;13.95;3.03;;;17.50;99.90;;;;;;5091076;28;20028;-72
2023/10/14 10:55:46;;;;;;;11.30;2.67;;;17.70;38.70;;;;;;5091233;28;20032;-71
2023/10/14 10:58:12;;;;;;;12.57;2.88;;;17.60;1.00;;;;;;5091052;28;20031;-72
2023/10/14 11:00:40;;;;;;;11.85;2.92;;;16.60;1.00;;;;;;5090788;28;20417;-72
2023/10/14 11:03:06;;;;;;;14.10;3.00;;;16.30;1.00;;;;;;5090890;28;20020;-72
2023/10/14 11:05:33;;;;;;;12.05;3.03;;;16.60;99.90;;;;;;5090855;28;20048;-71
2023/10/14 11:08:03;;;;;;;21.27;3.03;;;17.00;85.50;;;;;;5090975;28;20063;-72
2023/10/14 11:10:34;;;;;;;9.25;2.20;;;17.50;99.90;;;;;;5090949;28;20032;-72
2023/10/14 11:13:00;;;;;;;9.30;2.20;;;17.80;89.70;;;;;;5090996;28;20599;-72
2023/10/14 11:15:27;;;;;;;13.93;3.15;;;17.90;1.00;;;;;;5091134;28;20424;-71
2023/10/14 11:17:57;;;;;;;15.95;2.85;;;17.70;99.90;;;;;;5090217;28;20028;-71
2023/10/14 11:20:32;;;;;;;9.63;2.63;;;17.10;99.90;;;;;;5090619;28;20070;-72
2023/10/14 11:22:59;;;;;;;12.35;2.78;;;17.10;1.00;;;;;;5090904;28;20024;-71
2023/10/14 11:25:25;;;;;;;13.30;2.60;;;17.10;1.00;;;;;;5089881;28;20500;-71
2023/10/14 11:27:54;;;;;;;14.52;3.15;;;17.30;99.90;;;;;;5090618;28;20482;-71
2023/10/14 11:30:20;;;;;;;10.23;2.65;;;17.50;1.00;;;;;;5089607;28;20024;-71
2023/10/14 11:32:49;;;;;;;11.35;2.58;;;17.10;99.90;;;;;;5090571;28;20060;-70
2023/10/14 11:35:18;;;;;;;14.93;3.28;;;16.90;1.00;;;;;;5090078;28;20024;-71
2023/10/14 11:37:50;;;;;;;12.32;2.88;;;17.10;99.90;;;;;;5090356;28;20060;-71
2023/10/14 11:40:15;;;;;;;13.98;2.78;;;16.70;1.00;;;;;;5089296;28;20501;-71
2023/10/14 11:42:42;;;;;;;13.70;2.83;;;16.80;1.00;;;;;;5090092;28;20071;-71
2023/10/14 11:45:08;;;;;;;14.95;2.72;;;16.80;99.90;;;;;;5089877;28;20020;-72
2023/10/14 11:47:39;;;;;;;15.38;3.15;;;16.70;36.70;;;;;;5090549;28;20027;-72
2023/10/14 11:50:11;;;;;;;13.93;2.60;;;16.70;99.90;;;;;;5086376;28;20028;-72
2023/10/14 11:52:40;;;;;;;13.13;2.50;;;16.90;1.00;;;;;;5076970;28;20036;-72
2023/10/14 11:55:06;;;;;;;11.55;2.45;;;16.90;99.90;;;;;;5076618;28;20052;-72
2023/10/14 11:57:32;;;;;;;12.68;2.70;;;17.20;1.00;;;;;;5076475;28;20039;-71
2023/10/14 11:59:58;;;;;;;14.73;2.75;;;16.80;1.00;;;;;;5076441;28;20029;-72
2023/10/14 12:02:24;;;;;;;15.65;2.65;;;16.80;1.00;;;;;;5076342;28;20028;-72
2023/10/14 12:04:50;;;;;;;12.57;2.83;;;16.70;99.90;;;;;;5076353;28;20025;-72
2023/10/14 12:07:16;;;;;;;11.50;3.08;;;16.90;99.90;;;;;;5076678;28;20093;-72
2023/10/14 12:09:42;;;;;;;18.55;3.42;;;16.70;1.00;;;;;;5076353;28;20352;-72
2023/10/14 12:12:08;;;;;;;17.70;2.95;;;16.90;1.00;;;;;;5075923;28;20031;-71
2023/10/14 12:14:34;;;;;;;10.13;2.47;;;16.90;19.00;;;;;;5076206;28;20032;-71
2023/10/14 12:17:04;;;;;;;11.90;2.90;;;16.60;1.00;;;;;;5075969;28;20036;-71
2023/10/14 12:19:30;;;;;;;14.93;2.78;;;16.20;1.00;;;;;;5076178;28;20021;-72
2023/10/14 12:21:56;;;;;;;16.58;3.08;;;16.40;99.90;;;;;;5075630;28;20075;-71
2023/10/14 12:24:21;;;;;;;11.50;2.47;;;16.30;99.90;;;;;;5076429;28;20107;-71
2023/10/14 12:26:49;;;;;;;10.65;2.30;;;16.20;99.90;;;;;;5075783;28;20032;-71
2023/10/14 12:29:15;;;;;;;8.70;2.22;;;16.40;1.00;;;;;;5075927;28;20056;-72
2023/10/14 12:31:44;;;;;;;7.93;2.28;;;16.50;1.00;;;;;;5075622;28;20027;-72
2023/10/14 12:34:11;;;;;;;8.95;2.53;;;16.70;1.00;;;;;;5075595;28;20044;-72
2023/10/14 12:36:40;;;;;;;9.93;2.60;;;16.90;1.00;;;;;;5075607;28;20055;-71
2023/10/14 12:39:18;;;;;;;8.38;2.15;;;16.70;1.00;;;;;;5075382;28;20055;-71
2023/10/14 12:41:44;;;;;;;12.80;2.70;;;16.70;99.90;;;;;;5075409;28;20107;-71
2023/10/14 12:44:13;;;;;;;14.30;2.70;;;16.80;99.90;;;;;;5075377;28;20119;-71
2023/10/14 12:46:40;;;;;;;14.10;2.42;;;16.70;1.00;;;;;;5075932;28;20024;-71
2023/10/14 12:49:10;;;;;;;11.57;2.97;;;16.20;79.20;;;;;;5075955;28;20024;-72
2023/10/14 12:51:42;;;;;;;10.90;2.85;;;16.00;99.90;;;;;;5075529;28;20148;-71
2023/10/14 12:54:10;;;;;;;11.32;2.08;;;15.90;1.00;;;;;;5075201;28;20025;-72
2023/10/14 12:56:38;;;;;;;13.23;2.40;;;15.70;99.90;;;;;;5075514;28;20032;-73
2023/10/14 12:59:12;;;;;;;7.50;2.40;;;15.50;92.60;;;;;;5075225;28;20169;-72
2023/10/14 13:01:38;;;;;;;8.25;2.00;;;15.20;1.00;;;;;;5074944;28;20020;-72
2023/10/14 13:04:12;;;;;;;5.88;1.50;;;14.90;98.90;;;;;;5075340;28;20089;-72
2023/10/14 13:06:44;;;;;;;8.73;1.33;;;14.70;99.90;;;;;;5075045;28;20520;-72
2023/10/14 13:09:11;;;;;;;3.78;1.23;;;14.40;99.90;;;;;;5075272;28;20460;-72
2023/10/14 13:11:40;;;;;;;9.27;1.80;;;14.30;15.00;;;;;;5074945;28;20024;-72
2023/10/14 13:14:05;;;;;;;5.13;0.82;;;14.30;1.00;;;;;;5075209;28;20031;-72